createdAt,value
2023-01-11T00:00:52.144Z,4.7
2023-01-11T00:16:01.907Z,5.9
2023-01-11T00:31:11.902Z,3.3
2023-01-11T00:46:22.507Z,2.6
2023-01-11T01:01:33.049Z,1.8
2023-01-11T01:16:45.677Z,2.9
2023-01-11T01:31:54.861Z,4.7
2023-01-11T01:47:04.661Z,3.6
2023-01-11T02:02:13.790Z,2.7
2023-01-11T02:17:23.334Z,1.9
2023-01-11T02:32:33.095Z,2.5
2023-01-11T02:47:42.963Z,2.7
2023-01-11T03:02:55.325Z,2.2
2023-01-11T03:18:05.495Z,2.4
2023-01-11T03:33:15.486Z,1.8
2023-01-11T03:48:27.109Z,2.1
2023-01-11T04:03:37.157Z,3.5
2023-01-11T04:18:47.188Z,2
2023-01-11T04:33:56.989Z,4.7
2023-01-11T04:49:07.019Z,2.4
2023-01-11T05:04:16.721Z,2.6
2023-01-11T05:19:26.336Z,1.8
2023-01-11T05:34:35.710Z,1.8
2023-01-11T05:49:44.947Z,1.9
2023-01-11T06:04:55.903Z,2.7
2023-01-11T06:20:05.699Z,1.5
2023-01-11T06:35:15.451Z,1.6
2023-01-11T06:54:51.103Z,2.1
2023-01-11T07:10:03.411Z,2
2023-01-11T07:25:12.940Z,1.5
2023-01-11T07:40:22.755Z,1.2
2023-01-11T07:55:32.668Z,1.7
2023-01-11T08:10:42.911Z,1.5
2023-01-11T08:25:53.612Z,1.6
2023-01-11T08:41:03.123Z,1.2
2023-01-11T08:56:13.288Z,1.2
2023-01-11T09:11:23.586Z,1.3
2023-01-11T09:26:34.307Z,1.5
2023-01-11T09:41:44.455Z,1.2
2023-01-11T09:56:54.994Z,1.3
2023-01-11T10:29:08.621Z,1.1
2023-01-11T10:44:18.888Z,1.2
2023-01-11T10:59:29.651Z,1.5
2023-01-11T11:14:42.427Z,1.8
2023-01-11T11:29:53.466Z,1.9
2023-01-11T11:45:03.049Z,5.5
2023-01-11T12:00:12.705Z,3.6
2023-01-11T12:15:23.701Z,4.8
2023-01-11T12:30:33.561Z,4.9
2023-01-11T12:45:43.735Z,5.2
2023-01-11T13:01:22.824Z,9.3
2023-01-11T13:16:33.298Z,7.5
2023-01-11T13:31:43.067Z,9
2023-01-11T13:46:52.877Z,9.8
2023-01-11T14:02:02.914Z,16.2
2023-01-11T14:17:12.536Z,11.1
2023-01-11T14:32:23.005Z,14.7
2023-01-11T14:47:32.646Z,8
2023-01-11T15:02:41.923Z,12.8
2023-01-11T15:17:51.570Z,22.2
2023-01-11T15:33:01.509Z,8.2
2023-01-11T15:48:10.947Z,7.5
2023-01-11T16:03:23.718Z,12.2
2023-01-11T16:18:33.546Z,16.3
2023-01-11T16:33:42.544Z,13.1
2023-01-11T16:48:51.676Z,17.2
2023-01-11T17:04:15.903Z,10.7
2023-01-11T17:19:28.999Z,12.6
2023-01-11T17:34:38.483Z,10.4
2023-01-11T17:49:48.375Z,11.7
2023-01-11T18:04:58.015Z,13.4
2023-01-11T18:20:07.881Z,9.9
2023-01-11T18:35:19.627Z,16.3
2023-01-11T18:51:38.698Z,15.5
2023-01-11T19:07:59.751Z,16.8
2023-01-11T19:24:20.085Z,17.7
2023-01-11T19:40:40.689Z,18
2023-01-11T19:57:01.720Z,24.7
2023-01-11T20:13:22.898Z,17.5
2023-01-11T20:29:43.879Z,14
2023-01-11T20:46:04.471Z,11.2
2023-01-11T21:02:25.223Z,13.3
2023-01-11T21:18:45.731Z,10.9
2023-01-11T21:35:06.258Z,15.2
2023-01-11T21:51:27.115Z,11.3
2023-01-11T22:07:48.104Z,9.4
2023-01-11T22:24:10.842Z,13.2
2023-01-11T22:40:31.429Z,9.8
2023-01-11T22:56:55.304Z,10.8
2023-01-11T23:13:16.157Z,12.1
2023-01-11T23:29:36.174Z,9.4
2023-01-11T23:45:59.296Z,7.8
